Time,TemperatureF,DewpointF,PressureIn,WindDirection,WindDirectionDegrees,WindSpeedMPH,WindSpeedGustMPH,Humidity,HourlyPrecipIn,Conditions,Clouds,dailyrainin,SoftwareType,DateUTC
2013-07-04 00:01:00,74.9,57.6,29.90,ENE,68,0.4,0.7,55,0.00,,,0.00,WUHU216HW,2013-07-04 05:01:00,
2013-07-04 00:06:00,74.7,57.4,29.90,East,90,0.4,1.1,55,0.00,,,0.00,WUHU216HW,2013-07-04 05:06:00,
2013-07-04 00:11:00,74.5,57.2,29.91,ENE,68,0.4,1.1,55,0.00,,,0.00,WUHU216HW,2013-07-04 05:11:00,
2013-07-04 00:16:00,74.5,57.8,29.91,NE,45,0.7,1.1,56,0.00,,,0.00,WUHU216HW,2013-07-04 05:16:00,
2013-07-04 00:21:00,74.5,57.8,29.90,ENE,68,0.7,1.1,56,0.00,,,0.00,WUHU216HW,2013-07-04 05:21:00,
2013-07-04 00:26:00,74.5,57.8,29.90,NE,45,0.0,0.9,56,0.00,,,0.00,WUHU216HW,2013-07-04 05:26:00,
2013-07-04 00:31:00,74.2,57.9,29.91,NE,45,0.0,0.7,57,0.00,,,0.00,WUHU216HW,2013-07-04 05:31:00,
2013-07-04 00:36:00,74.0,57.7,29.90,NE,45,0.0,0.7,57,0.00,,,0.00,WUHU216HW,2013-07-04 05:36:00,
2013-07-04 00:41:00,73.8,58.1,29.90,ENE,68,0.7,0.7,58,0.00,,,0.00,WUHU216HW,2013-07-04 05:41:00,
2013-07-04 00:46:00,73.8,58.5,29.91,ESE,113,0.4,1.1,59,0.00,,,0.00,WUHU216HW,2013-07-04 05:46:00,
2013-07-04 00:51:00,73.6,58.3,29.90,ESE,113,0.0,1.1,59,0.00,,,0.00,WUHU216HW,2013-07-04 05:51:00,
2013-07-04 00:56:00,73.4,58.1,29.90,ESE,113,0.0,0.7,59,0.00,,,0.00,WUHU216HW,2013-07-04 05:56:00,
2013-07-04 01:01:00,73.4,58.1,29.91,East,90,0.0,0.4,59,0.00,,,0.00,WUHU216HW,2013-07-04 06:01:00,
2013-07-04 01:06:00,73.3,57.5,29.90,ENE,68,0.0,0.4,58,0.00,,,0.00,WUHU216HW,2013-07-04 06:06:00,
2013-07-04 01:11:00,73.3,57.5,29.91,NNE,23,0.0,0.2,58,0.00,,,0.00,WUHU216HW,2013-07-04 06:11:00,
2013-07-04 01:16:00,73.1,57.3,29.91,NNE,23,0.2,0.4,58,0.00,,,0.00,WUHU216HW,2013-07-04 06:16:00,
2013-07-04 01:21:00,72.9,57.7,29.91,NE,45,0.0,0.4,59,0.00,,,0.00,WUHU216HW,2013-07-04 06:21:00,
2013-07-04 01:26:00,72.7,58.1,29.91,NE,45,0.0,0.0,60,0.00,,,0.00,WUHU216HW,2013-07-04 06:26:00,
2013-07-04 01:32:00,72.5,58.3,29.91,NE,45,0.0,0.0,61,0.00,,,0.00,WUHU216HW,2013-07-04 06:32:00,
2013-07-04 01:37:00,72.4,58.1,29.90,East,90,0.4,0.4,61,0.00,,,0.00,WUHU216HW,2013-07-04 06:37:00,
2013-07-04 01:42:00,72.4,58.1,29.90,ESE,113,0.2,0.4,61,0.00,,,0.00,WUHU216HW,2013-07-04 06:42:00,
2013-07-04 01:47:00,72.4,58.6,29.91,ESE,113,0.0,0.9,62,0.00,,,0.00,WUHU216HW,2013-07-04 06:47:00,
2013-07-04 01:52:00,72.2,58.4,29.91,ESE,113,0.0,0.9,62,0.00,,,0.00,WUHU216HW,2013-07-04 06:52:00,
2013-07-04 01:57:00,72.0,57.8,29.91,ESE,113,0.0,0.0,61,0.00,,,0.00,WUHU216HW,2013-07-04 06:57:00,
2013-07-04 02:02:00,71.8,57.7,29.91,ESE,113,0.0,0.0,61,0.00,,,0.00,WUHU216HW,2013-07-04 07:02:00,
2013-07-04 02:07:00,71.6,57.5,29.91,ESE,113,0.0,0.0,61,0.00,,,0.00,WUHU216HW,2013-07-04 07:07:00,
2013-07-04 02:12:00,71.5,57.3,29.90,ESE,113,0.0,0.0,61,0.00,,,0.00,WUHU216HW,2013-07-04 07:12:00,
2013-07-04 02:17:00,71.3,57.2,29.91,ESE,113,0.0,0.0,61,0.00,,,0.00,WUHU216HW,2013-07-04 07:17:00,
2013-07-04 02:21:00,71.3,57.6,29.91,ESE,113,0.0,0.0,62,0.00,,,0.00,WUHU216HW,2013-07-04 07:21:00,
2013-07-04 02:26:00,70.9,57.2,29.91,ESE,113,0.0,0.0,62,0.00,,,0.00,WUHU216HW,2013-07-04 07:26:00,
2013-07-04 02:32:00,70.9,56.9,29.91,ESE,113,0.0,0.0,61,0.00,,,0.00,WUHU216HW,2013-07-04 07:32:00,
2013-07-04 02:36:00,70.7,57.1,29.90,ESE,113,0.0,0.0,62,0.00,,,0.00,WUHU216HW,2013-07-04 07:36:00,
2013-07-04 02:41:00,70.4,57.2,29.90,ESE,113,0.0,0.0,63,0.00,,,0.00,WUHU216HW,2013-07-04 07:41:00,
2013-07-04 02:47:00,70.2,57.1,29.90,ESE,113,0.0,0.0,63,0.00,,,0.00,WUHU216HW,2013-07-04 07:47:00,
2013-07-04 02:52:00,70.2,57.9,29.90,ESE,113,0.0,0.0,65,0.00,,,0.00,WUHU216HW,2013-07-04 07:52:00,
2013-07-04 02:57:00,69.8,57.5,29.90,ESE,113,0.0,0.0,65,0.00,,,0.00,WUHU216HW,2013-07-04 07:57:00,
2013-07-04 03:02:00,69.7,57.8,29.90,NE,45,0.0,0.0,66,0.00,,,0.00,WUHU216HW,2013-07-04 08:02:00,
2013-07-04 03:07:00,69.7,57.8,29.90,NE,45,0.0,0.0,66,0.00,,,0.00,WUHU216HW,2013-07-04 08:07:00,
2013-07-04 03:12:00,69.7,57.8,29.90,NE,45,0.0,0.0,66,0.00,,,0.00,WUHU216HW,2013-07-04 08:12:00,
2013-07-04 03:17:00,69.8,58.0,29.91,NE,45,0.0,0.0,66,0.00,,,0.00,WUHU216HW,2013-07-04 08:17:00,
2013-07-04 03:22:00,69.8,58.3,29.90,NE,45,0.0,0.0,67,0.00,,,0.00,WUHU216HW,2013-07-04 08:22:00,
2013-07-04 03:27:00,69.8,58.3,29.90,NNE,23,0.0,0.0,67,0.00,,,0.00,WUHU216HW,2013-07-04 08:27:00,
2013-07-04 03:32:00,69.8,58.3,29.90,NNE,23,0.0,0.0,67,0.00,,,0.00,WUHU216HW,2013-07-04 08:32:00,
2013-07-04 03:37:00,69.8,58.3,29.90,NNE,23,0.0,0.0,67,0.00,,,0.00,WUHU216HW,2013-07-04 08:37:00,
2013-07-04 03:42:00,69.8,58.8,29.90,NNE,23,0.0,0.0,68,0.00,,,0.00,WUHU216HW,2013-07-04 08:42:00,
2013-07-04 03:47:00,69.8,58.8,29.90,NNE,23,0.0,0.0,68,0.00,,,0.00,WUHU216HW,2013-07-04 08:47:00,
2013-07-04 03:52:00,70.0,59.3,29.90,NE,45,1.1,1.1,69,0.00,,,0.00,WUHU216HW,2013-07-04 08:52:00,
2013-07-04 03:57:00,70.4,59.7,29.90,ENE,68,1.8,1.8,69,0.00,,,0.00,WUHU216HW,2013-07-04 08:57:00,
2013-07-04 04:02:00,70.7,59.7,29.90,ENE,68,0.4,1.8,68,0.00,,,0.00,WUHU216HW,2013-07-04 09:02:00,
2013-07-04 04:07:00,71.1,59.6,29.90,ESE,113,0.4,1.1,67,0.00,,,0.00,WUHU216HW,2013-07-04 09:07:00,
2013-07-04 04:12:00,71.3,59.8,29.90,East,90,1.1,1.1,67,0.00,,,0.00,WUHU216HW,2013-07-04 09:12:00,
2013-07-04 04:17:00,71.5,59.5,29.90,East,90,0.0,1.3,66,0.00,,,0.00,WUHU216HW,2013-07-04 09:17:00,
2013-07-04 04:22:00,71.3,59.3,29.89,NE,45,0.0,1.3,66,0.00,,,0.00,WUHU216HW,2013-07-04 09:22:00,
2013-07-04 04:27:00,71.3,59.3,29.89,NE,45,0.0,1.3,66,0.00,,,0.00,WUHU216HW,2013-07-04 09:27:00,
2013-07-04 04:32:00,71.1,59.1,29.89,NE,45,0.0,0.4,66,0.00,,,0.00,WUHU216HW,2013-07-04 09:32:00,
2013-07-04 04:37:00,71.1,59.1,29.90,ENE,68,0.0,0.4,66,0.00,,,0.00,WUHU216HW,2013-07-04 09:37:00,
2013-07-04 04:42:00,71.1,59.1,29.89,SE,135,0.0,0.9,66,0.00,,,0.00,WUHU216HW,2013-07-04 09:42:00,
2013-07-04 04:47:00,70.9,58.5,29.89,SE,135,0.0,0.9,65,0.00,,,0.00,WUHU216HW,2013-07-04 09:47:00,
2013-07-04 04:52:00,70.7,58.3,29.89,SE,135,0.0,0.0,65,0.00,,,0.00,WUHU216HW,2013-07-04 09:52:00,
2013-07-04 04:57:00,70.2,59.1,29.89,SE,135,0.0,0.0,68,0.00,,,0.00,WUHU216HW,2013-07-04 09:57:00,
2013-07-04 05:02:00,69.7,59.4,29.90,South,180,0.0,0.0,70,0.00,,,0.00,WUHU216HW,2013-07-04 10:02:00,
2013-07-04 05:07:00,68.8,58.6,29.90,WSW,248,0.0,0.0,70,0.00,,,0.00,WUHU216HW,2013-07-04 10:07:00,
2013-07-04 05:12:00,68.4,58.7,29.89,NNE,23,0.0,0.7,71,0.00,,,0.00,WUHU216HW,2013-07-04 10:12:00,
2013-07-04 05:17:00,68.2,58.5,29.89,NNE,23,0.0,0.7,71,0.00,,,0.00,WUHU216HW,2013-07-04 10:17:00,
2013-07-04 05:22:00,68.2,60.0,29.90,WSW,248,0.0,0.0,75,0.00,,,0.00,WUHU216HW,2013-07-04 10:22:00,
2013-07-04 05:27:00,67.7,59.5,29.90,WSW,248,0.0,0.0,75,0.00,,,0.00,WUHU216HW,2013-07-04 10:27:00,
2013-07-04 05:32:00,67.3,58.8,29.91,WSW,248,0.0,0.0,74,0.00,,,0.00,WUHU216HW,2013-07-04 10:32:00,
2013-07-04 05:37:00,67.7,58.8,29.91,WNW,293,0.0,0.0,73,0.00,,,0.00,WUHU216HW,2013-07-04 10:37:00,
2013-07-04 05:42:00,67.9,59.0,29.90,WNW,293,0.0,0.0,73,0.00,,,0.00,WUHU216HW,2013-07-04 10:42:00,
2013-07-04 05:47:00,68.0,59.5,29.90,WNW,293,0.0,0.0,74,0.00,,,0.00,WUHU216HW,2013-07-04 10:47:00,
2013-07-04 05:52:00,67.7,59.1,29.91,WNW,293,0.0,0.0,74,0.00,,,0.00,WUHU216HW,2013-07-04 10:52:00,
2013-07-04 05:57:00,67.5,59.3,29.91,WNW,293,0.0,0.0,75,0.00,,,0.00,WUHU216HW,2013-07-04 10:57:00,
2013-07-04 06:02:00,67.5,59.0,29.90,NW,315,0.0,0.0,74,0.00,,,0.00,WUHU216HW,2013-07-04 11:02:00,
2013-07-04 06:07:00,67.5,59.0,29.91,NW,315,0.0,0.0,74,0.00,,,0.00,WUHU216HW,2013-07-04 11:07:00,
2013-07-04 06:12:00,67.7,59.1,29.91,NW,315,0.0,0.0,74,0.00,,,0.00,WUHU216HW,2013-07-04 11:12:00,
2013-07-04 06:17:00,67.5,59.0,29.91,NW,315,0.0,0.0,74,0.00,,,0.00,WUHU216HW,2013-07-04 11:17:00,
2013-07-04 06:22:00,67.3,59.1,29.91,NW,315,0.0,0.0,75,0.00,,,0.00,WUHU216HW,2013-07-04 11:22:00,
2013-07-04 06:27:00,67.3,58.8,29.91,NW,315,0.0,0.0,74,0.00,,,0.00,WUHU216HW,2013-07-04 11:27:00,
2013-07-04 06:32:00,67.3,59.1,29.91,NW,315,0.0,0.0,75,0.00,,,0.00,WUHU216HW,2013-07-04 11:32:00,
2013-07-04 06:37:00,67.0,60.3,29.91,NW,315,0.0,0.0,79,0.00,,,0.00,WUHU216HW,2013-07-04 11:37:00,
2013-07-04 06:42:00,66.6,60.3,29.91,NW,315,0.0,0.0,80,0.00,,,0.00,WUHU216HW,2013-07-04 11:42:00,
2013-07-04 06:47:00,66.6,59.1,29.91,NW,315,0.0,0.0,77,0.00,,,0.00,WUHU216HW,2013-07-04 11:47:00,
2013-07-04 06:52:00,66.8,59.3,29.91,NW,315,0.2,0.2,77,0.00,,,0.00,WUHU216HW,2013-07-04 11:52:00,
2013-07-04 06:57:00,66.8,59.3,29.91,NNW,338,0.2,1.3,77,0.00,,,0.00,WUHU216HW,2013-07-04 11:57:00,
2013-07-04 07:02:00,67.0,59.5,29.92,NNW,338,0.0,1.3,77,0.00,,,0.00,WUHU216HW,2013-07-04 12:02:00,
2013-07-04 07:07:00,67.0,59.5,29.91,NNW,338,0.2,0.7,77,0.00,,,0.00,WUHU216HW,2013-07-04 12:07:00,
2013-07-04 07:12:00,67.1,59.7,29.92,North,0,0.0,0.9,77,0.00,,,0.00,WUHU216HW,2013-07-04 12:12:00,
2013-07-04 07:17:00,67.1,59.7,29.92,East,90,0.2,0.9,77,0.00,,,0.00,WUHU216HW,2013-07-04 12:17:00,
2013-07-04 07:22:00,67.0,59.5,29.92,East,90,0.0,0.2,77,0.00,,,0.00,WUHU216HW,2013-07-04 12:22:00,
2013-07-04 07:27:00,66.8,59.3,29.92,East,90,0.0,0.0,77,0.00,,,0.00,WUHU216HW,2013-07-04 12:27:00,
2013-07-04 07:32:00,66.8,59.3,29.92,East,90,0.0,0.0,77,0.00,,,0.00,WUHU216HW,2013-07-04 12:32:00,
2013-07-04 07:37:00,66.8,59.3,29.92,East,90,0.0,0.0,77,0.00,,,0.00,WUHU216HW,2013-07-04 12:37:00,
2013-07-04 07:42:00,66.8,59.3,29.92,East,90,0.0,0.0,77,0.00,,,0.00,WUHU216HW,2013-07-04 12:42:00,
2013-07-04 07:47:00,66.8,59.3,29.92,East,90,0.0,0.0,77,0.00,,,0.00,WUHU216HW,2013-07-04 12:47:00,
2013-07-04 07:52:00,67.0,60.0,29.92,East,90,0.0,0.0,78,0.00,,,0.00,WUHU216HW,2013-07-04 12:52:00,
2013-07-04 07:57:00,67.3,60.3,29.92,East,90,0.0,0.0,78,0.00,,,0.00,WUHU216HW,2013-07-04 12:57:00,
2013-07-04 08:02:00,68.0,61.7,29.93,ESE,113,0.9,1.1,80,0.00,,,0.00,WUHU216HW,2013-07-04 13:02:00,
2013-07-04 08:07:00,68.8,61.7,29.93,ESE,113,0.0,1.1,78,0.00,,,0.00,WUHU216HW,2013-07-04 13:07:00,
2013-07-04 08:12:00,69.5,61.9,29.93,ENE,68,0.0,0.7,77,0.00,,,0.00,WUHU216HW,2013-07-04 13:12:00,
2013-07-04 08:17:00,70.2,61.5,29.93,NE,45,0.4,0.7,74,0.00,,,0.00,WUHU216HW,2013-07-04 13:17:00,
2013-07-04 08:22:00,70.7,62.0,29.93,NNE,23,1.3,1.8,74,0.00,,,0.00,WUHU216HW,2013-07-04 13:22:00,
2013-07-04 08:27:00,71.1,62.0,29.93,North,0,0.0,1.8,73,0.00,,,0.00,WUHU216HW,2013-07-04 13:27:00,
2013-07-04 08:32:00,71.5,61.9,29.93,North,0,0.0,0.4,72,0.00,,,0.00,WUHU216HW,2013-07-04 13:32:00,
2013-07-04 08:37:00,71.8,62.3,29.93,North,0,0.0,0.4,72,0.00,,,0.00,WUHU216HW,2013-07-04 13:37:00,
2013-07-04 08:42:00,72.0,62.9,29.93,ESE,113,1.3,1.3,73,0.00,,,0.00,WUHU216HW,2013-07-04 13:42:00,
2013-07-04 08:47:00,72.4,63.6,29.93,ENE,68,0.4,1.3,74,0.00,,,0.00,WUHU216HW,2013-07-04 13:47:00,
2013-07-04 08:52:00,72.9,63.8,29.93,SE,135,1.1,1.8,73,0.00,,,0.00,WUHU216HW,2013-07-04 13:52:00,
2013-07-04 08:57:00,73.3,63.7,29.93,ESE,113,0.0,1.8,72,0.00,,,0.00,WUHU216HW,2013-07-04 13:57:00,
2013-07-04 09:02:00,74.2,64.2,29.93,SE,135,1.6,1.6,71,0.00,,,0.00,WUHU216HW,2013-07-04 14:02:00,
2013-07-04 09:07:00,75.6,64.3,29.93,ESE,113,2.7,2.7,68,0.00,,,0.00,WUHU216HW,2013-07-04 14:07:00,
2013-07-04 09:12:00,77.0,65.7,29.94,ESE,113,2.5,2.7,68,0.00,,,0.00,WUHU216HW,2013-07-04 14:12:00,
2013-07-04 09:17:00,77.9,65.3,29.94,ESE,113,2.7,2.7,65,0.00,,,0.00,WUHU216HW,2013-07-04 14:17:00,
2013-07-04 09:22:00,78.3,64.7,29.93,SE,135,1.8,2.7,63,0.00,,,0.00,WUHU216HW,2013-07-04 14:22:00,
2013-07-04 09:27:00,79.0,64.9,29.93,SSE,158,2.7,2.7,62,0.00,,,0.00,WUHU216HW,2013-07-04 14:27:00,
2013-07-04 09:32:00,79.6,65.0,29.94,ESE,113,3.4,3.4,61,0.00,,,0.00,WUHU216HW,2013-07-04 14:32:00,
2013-07-04 09:37:00,79.9,64.9,29.94,ESE,113,1.6,3.4,60,0.00,,,0.00,WUHU216HW,2013-07-04 14:37:00,
2013-07-04 09:42:00,80.5,65.8,29.93,SE,135,2.5,4.0,61,0.00,,,0.00,WUHU216HW,2013-07-04 14:42:00,
2013-07-04 09:47:00,81.4,65.2,29.93,ESE,113,2.5,4.0,58,0.00,,,0.00,WUHU216HW,2013-07-04 14:47:00,
2013-07-04 09:52:00,81.9,64.5,29.93,SE,135,2.2,5.4,56,0.00,,,0.00,WUHU216HW,2013-07-04 14:52:00,
2013-07-04 09:57:00,82.3,64.9,29.93,SE,135,2.2,5.4,56,0.00,,,0.00,WUHU216HW,2013-07-04 14:57:00,
2013-07-04 10:02:00,82.3,64.9,29.93,SSW,203,2.5,5.4,56,0.00,,,0.00,WUHU216HW,2013-07-04 15:02:00,
2013-07-04 10:07:00,82.6,64.2,29.93,SSW,203,2.5,5.4,54,0.00,,,0.00,WUHU216HW,2013-07-04 15:07:00,
2013-07-04 10:12:00,83.0,64.5,29.93,SW,225,1.1,3.6,54,0.00,,,0.00,WUHU216HW,2013-07-04 15:12:00,
2013-07-04 10:17:00,83.3,64.4,29.93,SW,225,3.4,3.4,53,0.00,,,0.00,WUHU216HW,2013-07-04 15:17:00,
2013-07-04 10:22:00,83.3,64.4,29.93,SW,225,1.8,3.4,53,0.00,,,0.00,WUHU216HW,2013-07-04 15:22:00,
2013-07-04 10:27:00,83.7,65.3,29.93,ESE,113,2.2,2.9,54,0.00,,,0.00,WUHU216HW,2013-07-04 15:27:00,
2013-07-04 10:32:00,83.7,64.7,29.93,SSW,203,1.8,2.9,53,0.00,,,0.00,WUHU216HW,2013-07-04 15:32:00,
2013-07-04 10:37:00,83.9,66.0,29.93,South,180,0.9,3.6,55,0.00,,,0.00,WUHU216HW,2013-07-04 15:37:00,
2013-07-04 10:42:00,84.2,66.3,29.93,SE,135,1.8,3.6,55,0.00,,,0.00,WUHU216HW,2013-07-04 15:42:00,
2013-07-04 10:47:00,84.6,66.7,29.93,SW,225,1.1,3.4,55,0.00,,,0.00,WUHU216HW,2013-07-04 15:47:00,
2013-07-04 10:52:00,85.1,65.1,29.93,SW,225,2.0,2.2,51,0.00,,,0.00,WUHU216HW,2013-07-04 15:52:00,
2013-07-04 10:57:00,85.3,66.2,29.92,SSE,158,2.0,3.1,53,0.00,,,0.00,WUHU216HW,2013-07-04 15:57:00,
2013-07-04 11:02:00,85.5,66.4,29.92,WNW,293,1.8,3.1,53,0.00,,,0.00,WUHU216HW,2013-07-04 16:02:00,
2013-07-04 11:07:00,85.9,66.3,29.93,WSW,248,1.8,3.1,52,0.00,,,0.00,WUHU216HW,2013-07-04 16:07:00,
2013-07-04 11:12:00,85.9,65.7,29.92,NNW,338,0.9,3.1,51,0.00,,,0.00,WUHU216HW,2013-07-04 16:12:00,
2013-07-04 11:17:00,86.2,66.1,29.93,SE,135,2.0,2.5,51,0.00,,,0.00,WUHU216HW,2013-07-04 16:17:00,
2013-07-04 11:22:00,86.9,66.2,29.92,WNW,293,0.9,2.5,50,0.00,,,0.00,WUHU216HW,2013-07-04 16:22:00,
2013-07-04 11:27:00,87.3,65.9,29.92,SE,135,1.1,1.8,49,0.00,,,0.00,WUHU216HW,2013-07-04 16:27:00,
2013-07-04 11:32:00,87.8,67.0,29.92,SSW,203,0.2,2.5,50,0.00,,,0.00,WUHU216HW,2013-07-04 16:32:00,
2013-07-04 11:37:00,87.8,67.5,29.92,SSW,203,2.5,3.4,51,0.00,,,0.00,WUHU216HW,2013-07-04 16:37:00,
2013-07-04 11:42:00,87.8,65.7,29.92,WSW,248,1.8,3.4,48,0.00,,,0.00,WUHU216HW,2013-07-04 16:42:00,
2013-07-04 11:47:00,87.7,65.5,29.92,SSE,158,1.3,1.8,48,0.00,,,0.00,WUHU216HW,2013-07-04 16:47:00,
2013-07-04 11:52:00,87.1,65.7,29.92,ESE,113,4.0,4.0,49,0.00,,,0.00,WUHU216HW,2013-07-04 16:52:00,
2013-07-04 11:57:00,88.0,65.9,29.92,SW,225,1.8,4.5,48,0.00,,,0.00,WUHU216HW,2013-07-04 16:57:00,
2013-07-04 12:02:00,88.4,65.5,29.91,SSW,203,1.6,4.9,47,0.00,,,0.00,WUHU216HW,2013-07-04 17:02:00,
2013-07-04 12:07:00,88.0,65.3,29.91,SSW,203,0.4,4.9,47,0.00,,,0.00,WUHU216HW,2013-07-04 17:07:00,
2013-07-04 12:12:00,87.5,64.1,29.91,SW,225,1.8,1.8,46,0.00,,,0.00,WUHU216HW,2013-07-04 17:12:00,
2013-07-04 12:17:00,88.4,66.2,29.90,SSW,203,0.7,4.9,48,0.00,,,0.00,WUHU216HW,2013-07-04 17:17:00,
2013-07-04 12:22:00,88.9,66.0,29.90,ENE,68,1.8,4.9,47,0.00,,,0.00,WUHU216HW,2013-07-04 17:22:00,
2013-07-04 12:27:00,88.0,65.3,29.91,SW,225,0.7,3.1,47,0.00,,,0.00,WUHU216HW,2013-07-04 17:27:00,
2013-07-04 12:32:00,87.7,64.9,29.91,SSE,158,1.8,3.1,47,0.00,,,0.00,WUHU216HW,2013-07-04 17:32:00,
2013-07-04 12:37:00,88.6,65.1,29.90,South,180,0.7,5.1,46,0.00,,,0.00,WUHU216HW,2013-07-04 17:37:00,
2013-07-04 12:42:00,89.8,65.5,29.90,SW,225,2.2,5.1,45,0.00,,,0.00,WUHU216HW,2013-07-04 17:42:00,
2013-07-04 12:47:00,90.4,65.3,29.90,SW,225,2.7,4.0,44,0.00,,,0.00,WUHU216HW,2013-07-04 17:47:00,
2013-07-04 12:52:00,90.0,65.0,29.90,ESE,113,3.4,4.5,44,0.00,,,0.00,WUHU216HW,2013-07-04 17:52:00,
2013-07-04 12:57:00,89.8,64.2,29.90,SE,135,3.4,4.5,43,0.00,,,0.00,WUHU216HW,2013-07-04 17:57:00,
2013-07-04 13:02:00,90.0,63.7,29.89,West,270,0.0,3.8,42,0.00,,,0.00,WUHU216HW,2013-07-04 18:02:00,
2013-07-04 13:07:00,90.5,64.9,29.89,NE,45,0.4,3.8,43,0.00,,,0.00,WUHU216HW,2013-07-04 18:07:00,
2013-07-04 13:12:00,90.2,63.3,29.89,SW,225,2.5,2.5,41,0.00,,,0.00,WUHU216HW,2013-07-04 18:12:00,
2013-07-04 13:17:00,89.8,63.5,29.89,SSE,158,0.9,2.5,42,0.00,,,0.00,WUHU216HW,2013-07-04 18:17:00,
2013-07-04 13:22:00,89.5,63.3,29.89,ESE,113,0.7,1.8,42,0.00,,,0.00,WUHU216HW,2013-07-04 18:22:00,
2013-07-04 13:27:00,89.3,64.4,29.89,ESE,113,2.9,3.1,44,0.00,,,0.00,WUHU216HW,2013-07-04 18:27:00,
2013-07-04 13:32:00,88.9,63.5,29.89,NE,45,1.1,3.1,43,0.00,,,0.00,WUHU216HW,2013-07-04 18:32:00,
2013-07-04 13:37:00,89.8,63.5,29.89,North,0,0.4,3.4,42,0.00,,,0.00,WUHU216HW,2013-07-04 18:37:00,
2013-07-04 13:42:00,90.0,63.1,29.88,ENE,68,0.4,3.8,41,0.00,,,0.00,WUHU216HW,2013-07-04 18:42:00,
2013-07-04 13:47:00,89.3,61.8,29.88,ENE,68,1.1,4.0,40,0.00,,,0.00,WUHU216HW,2013-07-04 18:47:00,
2013-07-04 13:52:00,88.7,62.6,29.88,ESE,113,1.3,4.0,42,0.00,,,0.00,WUHU216HW,2013-07-04 18:52:00,
2013-07-04 13:57:00,88.2,62.8,29.88,NNE,23,0.2,4.3,43,0.00,,,0.00,WUHU216HW,2013-07-04 18:57:00,
2013-07-04 14:02:00,88.2,64.1,29.88,ENE,68,1.8,4.3,45,0.00,,,0.00,WUHU216HW,2013-07-04 19:02:00,
2013-07-04 14:07:00,89.3,63.7,29.87,NE,45,2.5,2.9,43,0.00,,,0.00,WUHU216HW,2013-07-04 19:07:00,
2013-07-04 14:12:00,90.4,63.4,29.87,ESE,113,1.3,3.8,41,0.00,,,0.00,WUHU216HW,2013-07-04 19:12:00,
2013-07-04 14:17:00,91.1,63.4,29.87,SE,135,2.2,6.0,40,0.00,,,0.00,WUHU216HW,2013-07-04 19:17:00,
2013-07-04 14:22:00,91.1,63.4,29.87,SW,225,0.7,6.0,40,0.00,,,0.00,WUHU216HW,2013-07-04 19:22:00,
2013-07-04 14:27:00,92.2,64.4,29.86,North,0,1.1,2.7,40,0.00,,,0.00,WUHU216HW,2013-07-04 19:27:00,
2013-07-04 14:32:00,92.2,64.4,29.87,SE,135,4.7,7.2,40,0.00,,,0.00,WUHU216HW,2013-07-04 19:32:00,
2013-07-04 14:37:00,92.2,62.7,29.86,NNE,23,1.8,7.2,38,0.00,,,0.00,WUHU216HW,2013-07-04 19:37:00,
2013-07-04 14:42:00,92.0,61.0,29.86,SE,135,3.4,5.1,36,0.00,,,0.00,WUHU216HW,2013-07-04 19:42:00,
2013-07-04 14:47:00,92.3,62.9,29.86,SE,135,2.0,3.4,38,0.00,,,0.00,WUHU216HW,2013-07-04 19:47:00,
2013-07-04 14:52:00,92.7,61.7,29.86,SE,135,2.2,2.5,36,0.00,,,0.00,WUHU216HW,2013-07-04 19:52:00,
2013-07-04 14:57:00,93.2,61.3,29.86,North,0,1.3,2.5,35,0.00,,,0.00,WUHU216HW,2013-07-04 19:57:00,
2013-07-04 15:02:00,94.0,62.7,29.86,ENE,68,1.1,2.2,36,0.00,,,0.00,WUHU216HW,2013-07-04 20:02:00,
2013-07-04 15:07:00,93.6,62.5,29.85,ESE,113,2.5,4.3,36,0.00,,,0.00,WUHU216HW,2013-07-04 20:07:00,
2013-07-04 15:12:00,93.1,63.5,29.85,ENE,68,1.6,4.9,38,0.00,,,0.00,WUHU216HW,2013-07-04 20:12:00,
2013-07-04 15:17:00,93.1,61.1,29.85,ESE,113,1.3,4.9,35,0.00,,,0.00,WUHU216HW,2013-07-04 20:17:00,
2013-07-04 15:22:00,93.2,61.3,29.85,SE,135,2.2,4.7,35,0.00,,,0.00,WUHU216HW,2013-07-04 20:22:00,
2013-07-04 15:27:00,92.9,61.8,29.85,SW,225,0.4,4.7,36,0.00,,,0.00,WUHU216HW,2013-07-04 20:27:00,
2013-07-04 15:32:00,92.9,61.8,29.85,NNW,338,3.6,3.6,36,0.00,,,0.00,WUHU216HW,2013-07-04 20:32:00,
2013-07-04 15:37:00,93.6,61.7,29.85,ESE,113,3.4,3.6,35,0.00,,,0.00,WUHU216HW,2013-07-04 20:37:00,
2013-07-04 15:42:00,93.6,62.5,29.85,NE,45,0.0,3.4,36,0.00,,,0.00,WUHU216HW,2013-07-04 20:42:00,
2013-07-04 15:47:00,94.1,62.1,29.85,SSE,158,1.1,2.0,35,0.00,,,0.00,WUHU216HW,2013-07-04 20:47:00,
2013-07-04 15:52:00,94.7,63.4,29.85,East,90,1.3,2.9,36,0.00,,,0.00,WUHU216HW,2013-07-04 20:52:00,
2013-07-04 15:57:00,94.3,63.1,29.84,WSW,248,1.3,5.4,36,0.00,,,0.00,WUHU216HW,2013-07-04 20:57:00,
2013-07-04 16:02:00,94.3,64.7,29.85,NE,45,0.9,5.4,38,0.00,,,0.00,WUHU216HW,2013-07-04 21:02:00,
2013-07-04 16:07:00,93.4,63.9,29.84,ENE,68,3.4,3.4,38,0.00,,,0.00,WUHU216HW,2013-07-04 21:07:00,
2013-07-04 16:12:00,91.6,63.9,29.85,NE,45,1.8,4.7,40,0.00,,,0.00,WUHU216HW,2013-07-04 21:12:00,
2013-07-04 16:17:00,91.3,63.5,29.85,ENE,68,3.4,4.7,40,0.00,,,0.00,WUHU216HW,2013-07-04 21:17:00,
2013-07-04 16:22:00,90.7,63.7,29.85,ENE,68,3.1,4.3,41,0.00,,,0.00,WUHU216HW,2013-07-04 21:22:00,
2013-07-04 16:27:00,90.2,63.9,29.85,ENE,68,3.4,3.4,42,0.00,,,0.00,WUHU216HW,2013-07-04 21:27:00,
2013-07-04 16:32:00,89.1,64.9,29.85,NNE,23,2.5,3.6,45,0.00,,,0.00,WUHU216HW,2013-07-04 21:32:00,
2013-07-04 16:37:00,88.2,64.1,29.85,East,90,5.6,5.6,45,0.00,,,0.00,WUHU216HW,2013-07-04 21:37:00,
2013-07-04 16:42:00,87.5,63.5,29.85,ENE,68,5.8,6.5,45,0.00,,,0.00,WUHU216HW,2013-07-04 21:42:00,
2013-07-04 16:47:00,87.3,63.4,29.85,ENE,68,4.9,6.5,45,0.00,,,0.00,WUHU216HW,2013-07-04 21:47:00,
2013-07-04 16:52:00,86.8,62.2,29.85,ENE,68,5.4,5.4,44,0.00,,,0.00,WUHU216HW,2013-07-04 21:52:00,
2013-07-04 16:57:00,86.6,62.0,29.85,East,90,3.1,6.3,44,0.00,,,0.00,WUHU216HW,2013-07-04 21:57:00,
2013-07-04 17:02:00,86.6,62.6,29.85,ENE,68,4.7,6.3,45,0.00,,,0.00,WUHU216HW,2013-07-04 22:02:00,
2013-07-04 17:07:00,85.7,64.4,29.85,ENE,68,3.4,5.8,49,0.00,,,0.00,WUHU216HW,2013-07-04 22:07:00,
2013-07-04 17:13:00,83.0,64.5,29.85,North,0,4.0,5.8,54,0.01,,,0.01,WUHU216HW,2013-07-04 22:13:00,
2013-07-04 17:17:00,81.4,64.6,29.85,NNE,23,2.7,4.5,57,0.01,,,0.01,WUHU216HW,2013-07-04 22:17:00,
2013-07-04 17:23:00,81.0,66.8,29.85,NE,45,2.7,4.5,62,0.01,,,0.01,WUHU216HW,2013-07-04 22:23:00,
2013-07-04 17:28:00,81.4,67.1,29.85,NE,45,2.7,4.5,62,0.01,,,0.01,WUHU216HW,2013-07-04 22:28:00,
2013-07-04 17:33:00,82.1,66.3,29.85,NNE,23,2.9,3.8,59,0.01,,,0.01,WUHU216HW,2013-07-04 22:33:00,
2013-07-04 17:38:00,82.8,66.4,29.85,North,0,0.9,3.6,58,0.01,,,0.01,WUHU216HW,2013-07-04 22:38:00,
2013-07-04 17:43:00,82.8,66.4,29.85,ENE,68,2.0,3.4,58,0.01,,,0.01,WUHU216HW,2013-07-04 22:43:00,
2013-07-04 17:48:00,82.8,65.4,29.85,East,90,1.6,3.4,56,0.01,,,0.01,WUHU216HW,2013-07-04 22:48:00,
2013-07-04 17:53:00,83.0,64.0,29.85,East,90,0.7,5.6,53,0.01,,,0.01,WUHU216HW,2013-07-04 22:53:00,
2013-07-04 17:58:00,82.8,63.8,29.85,ENE,68,0.9,5.6,53,0.01,,,0.01,WUHU216HW,2013-07-04 22:58:00,
2013-07-04 18:03:00,82.6,64.2,29.85,East,90,1.8,1.8,54,0.01,,,0.01,WUHU216HW,2013-07-04 23:03:00,
2013-07-04 18:08:00,82.4,63.5,29.84,East,90,1.8,2.5,53,0.00,,,0.01,WUHU216HW,2013-07-04 23:08:00,
2013-07-04 18:13:00,82.8,62.8,29.84,ENE,68,2.5,4.0,51,0.00,,,0.01,WUHU216HW,2013-07-04 23:13:00,
2013-07-04 18:18:00,83.2,63.2,29.84,ENE,68,1.8,4.0,51,0.00,,,0.01,WUHU216HW,2013-07-04 23:18:00,
2013-07-04 18:23:00,84.4,63.3,29.84,East,90,3.1,3.6,49,0.00,,,0.01,WUHU216HW,2013-07-04 23:23:00,
2013-07-04 18:28:00,85.1,65.1,29.83,ENE,68,3.6,3.6,51,0.00,,,0.01,WUHU216HW,2013-07-04 23:28:00,
2013-07-04 18:33:00,85.3,65.3,29.84,ESE,113,3.4,3.6,51,0.00,,,0.01,WUHU216HW,2013-07-04 23:33:00,
2013-07-04 18:38:00,85.3,64.7,29.84,East,90,3.4,3.4,50,0.00,,,0.01,WUHU216HW,2013-07-04 23:38:00,
2013-07-04 18:43:00,84.8,64.2,29.83,East,90,2.5,5.1,50,0.00,,,0.01,WUHU216HW,2013-07-04 23:43:00,
2013-07-04 18:48:00,84.6,64.1,29.84,East,90,2.7,5.1,50,0.00,,,0.01,WUHU216HW,2013-07-04 23:48:00,
2013-07-04 18:53:00,84.6,64.5,29.84,ESE,113,2.2,4.7,51,0.00,,,0.01,WUHU216HW,2013-07-04 23:53:00,
2013-07-04 18:58:00,84.6,64.5,29.84,ENE,68,2.9,4.7,51,0.00,,,0.01,WUHU216HW,2013-07-04 23:58:00,
2013-07-04 19:03:00,84.6,64.5,29.84,NE,45,3.1,3.4,51,0.00,,,0.01,WUHU216HW,2013-07-05 00:03:00,
2013-07-04 19:08:00,84.2,63.7,29.84,ENE,68,2.0,3.4,50,0.00,,,0.01,WUHU216HW,2013-07-05 00:08:00,
2013-07-04 19:13:00,83.9,63.4,29.84,ENE,68,1.8,3.6,50,0.00,,,0.01,WUHU216HW,2013-07-05 00:13:00,
2013-07-04 19:18:00,83.9,63.4,29.84,ENE,68,2.2,3.6,50,0.00,,,0.01,WUHU216HW,2013-07-05 00:18:00,
2013-07-04 19:23:00,83.7,63.2,29.84,ESE,113,1.8,3.4,50,0.00,,,0.01,WUHU216HW,2013-07-05 00:23:00,
2013-07-04 19:28:00,83.5,63.0,29.85,NNE,23,3.4,4.9,50,0.00,,,0.01,WUHU216HW,2013-07-05 00:28:00,
2013-07-04 19:33:00,83.3,63.4,29.84,ENE,68,2.0,4.9,51,0.00,,,0.01,WUHU216HW,2013-07-05 00:33:00,
2013-07-04 19:38:00,83.2,63.2,29.84,East,90,3.8,3.8,51,0.00,,,0.01,WUHU216HW,2013-07-05 00:38:00,
2013-07-04 19:43:00,83.0,63.6,29.85,NE,45,1.8,3.8,52,0.00,,,0.01,WUHU216HW,2013-07-05 00:43:00,
2013-07-04 19:48:00,82.8,63.4,29.84,ESE,113,3.4,3.4,52,0.00,,,0.01,WUHU216HW,2013-07-05 00:48:00,
2013-07-04 19:53:00,82.6,63.6,29.85,ENE,68,1.6,3.4,53,0.00,,,0.01,WUHU216HW,2013-07-05 00:53:00,
2013-07-04 19:58:00,82.3,63.4,29.85,ENE,68,1.3,3.4,53,0.00,,,0.01,WUHU216HW,2013-07-05 00:58:00,
2013-07-04 20:03:00,81.9,64.1,29.85,ESE,113,1.3,2.5,55,0.00,,,0.01,WUHU216HW,2013-07-05 01:03:00,
2013-07-04 20:08:00,81.5,63.7,29.85,ENE,68,1.1,2.7,55,0.00,,,0.01,WUHU216HW,2013-07-05 01:08:00,
2013-07-04 20:13:00,81.4,64.1,29.85,ENE,68,1.6,2.7,56,0.00,,,0.01,WUHU216HW,2013-07-05 01:13:00,
2013-07-04 20:18:00,80.8,64.1,29.85,ENE,68,0.9,2.0,57,0.00,,,0.01,WUHU216HW,2013-07-05 01:18:00,
2013-07-04 20:23:00,80.3,63.6,29.85,ENE,68,0.9,2.0,57,0.00,,,0.01,WUHU216HW,2013-07-05 01:23:00,
2013-07-04 20:28:00,80.1,64.0,29.85,ENE,68,1.1,1.6,58,0.00,,,0.01,WUHU216HW,2013-07-05 01:28:00,
2013-07-04 20:33:00,79.7,63.6,29.85,ENE,68,0.7,1.3,58,0.00,,,0.01,WUHU216HW,2013-07-05 01:33:00,
2013-07-04 20:38:00,79.6,64.0,29.85,NE,45,0.7,1.3,59,0.00,,,0.01,WUHU216HW,2013-07-05 01:38:00,
2013-07-04 20:43:00,79.2,63.7,29.85,NE,45,0.9,1.1,59,0.00,,,0.01,WUHU216HW,2013-07-05 01:43:00,
2013-07-04 20:48:00,79.0,64.1,29.85,NE,45,0.0,1.1,60,0.00,,,0.01,WUHU216HW,2013-07-05 01:48:00,
2013-07-04 20:53:00,78.7,64.2,29.85,ENE,68,0.7,1.1,61,0.00,,,0.01,WUHU216HW,2013-07-05 01:53:00,
2013-07-04 20:58:00,78.5,64.5,29.85,East,90,0.4,1.1,62,0.00,,,0.01,WUHU216HW,2013-07-05 01:58:00,
2013-07-04 21:03:00,78.1,64.1,29.85,East,90,0.0,1.1,62,0.00,,,0.01,WUHU216HW,2013-07-05 02:03:00,
2013-07-04 21:08:00,77.9,63.9,29.85,East,90,0.0,0.4,62,0.00,,,0.01,WUHU216HW,2013-07-05 02:08:00,
2013-07-04 21:13:00,77.9,64.4,29.86,East,90,0.0,0.4,63,0.00,,,0.01,WUHU216HW,2013-07-05 02:13:00,
2013-07-04 21:18:00,77.8,64.6,29.86,East,90,0.0,1.8,64,0.00,,,0.01,WUHU216HW,2013-07-05 02:18:00,
2013-07-04 21:23:00,77.4,63.8,29.86,ENE,68,0.4,1.8,63,0.00,,,0.01,WUHU216HW,2013-07-05 02:23:00,
2013-07-04 21:28:00,77.2,63.6,29.86,NE,45,0.0,0.7,63,0.00,,,0.01,WUHU216HW,2013-07-05 02:28:00,
2013-07-04 21:33:00,77.0,63.5,29.86,NE,45,0.0,0.4,63,0.00,,,0.01,WUHU216HW,2013-07-05 02:33:00,
2013-07-04 21:38:00,77.0,63.9,29.86,NE,45,0.0,0.4,64,0.00,,,0.01,WUHU216HW,2013-07-05 02:38:00,
2013-07-04 21:43:00,76.7,64.4,29.86,ESE,113,1.1,1.1,66,0.00,,,0.01,WUHU216HW,2013-07-05 02:43:00,
2013-07-04 21:48:00,76.5,64.7,29.86,ESE,113,1.3,1.3,67,0.00,,,0.01,WUHU216HW,2013-07-05 02:48:00,
2013-07-04 21:53:00,76.1,64.8,29.87,ESE,113,2.0,2.0,68,0.00,,,0.01,WUHU216HW,2013-07-05 02:53:00,
2013-07-04 21:58:00,76.0,65.1,29.87,ESE,113,1.1,2.0,69,0.00,,,0.01,WUHU216HW,2013-07-05 02:58:00,
2013-07-04 22:03:00,75.8,64.9,29.87,East,90,0.4,1.8,69,0.00,,,0.01,WUHU216HW,2013-07-05 03:03:00,
2013-07-04 22:08:00,75.8,64.9,29.87,ESE,113,0.9,1.3,69,0.00,,,0.01,WUHU216HW,2013-07-05 03:08:00,
2013-07-04 22:13:00,75.6,65.2,29.87,ESE,113,1.1,1.8,70,0.00,,,0.01,WUHU216HW,2013-07-05 03:13:00,
2013-07-04 22:18:00,75.2,65.2,29.87,ESE,113,1.6,2.5,71,0.00,,,0.01,WUHU216HW,2013-07-05 03:18:00,
2013-07-04 22:23:00,75.2,64.8,29.87,ESE,113,0.4,2.5,70,0.00,,,0.01,WUHU216HW,2013-07-05 03:23:00,
2013-07-04 22:28:00,75.2,64.8,29.87,East,90,1.1,1.8,70,0.00,,,0.01,WUHU216HW,2013-07-05 03:28:00,
2013-07-04 22:33:00,75.2,64.8,29.87,SE,135,1.6,1.8,70,0.00,,,0.01,WUHU216HW,2013-07-05 03:33:00,
2013-07-04 22:38:00,75.2,64.8,29.88,ESE,113,1.1,1.6,70,0.00,,,0.01,WUHU216HW,2013-07-05 03:38:00,
2013-07-04 22:43:00,75.2,64.8,29.88,ESE,113,1.1,1.6,70,0.00,,,0.01,WUHU216HW,2013-07-05 03:43:00,
2013-07-04 22:48:00,75.2,64.4,29.87,ESE,113,0.0,1.8,69,0.00,,,0.01,WUHU216HW,2013-07-05 03:48:00,
2013-07-04 22:53:00,75.1,63.8,29.88,NE,45,0.0,1.8,68,0.00,,,0.01,WUHU216HW,2013-07-05 03:53:00,
2013-07-04 22:58:00,74.9,63.6,29.88,North,0,0.0,0.9,68,0.00,,,0.01,WUHU216HW,2013-07-05 03:58:00,
2013-07-04 23:01:00,74.9,63.6,29.87,North,0,0.0,0.9,68,0.00,,,0.01,WUHU216HW,2013-07-05 04:01:00,
2013-07-04 23:06:00,74.7,63.5,29.88,North,0,0.0,0.0,68,0.00,,,0.01,WUHU216HW,2013-07-05 04:06:00,
2013-07-04 23:12:00,74.7,63.5,29.88,North,0,0.0,0.0,68,0.00,,,0.01,WUHU216HW,2013-07-05 04:12:00,
2013-07-04 23:17:00,74.5,63.3,29.88,North,0,0.0,0.0,68,0.00,,,0.01,WUHU216HW,2013-07-05 04:17:00,
2013-07-04 23:22:00,74.3,63.1,29.88,North,0,0.0,0.0,68,0.00,,,0.01,WUHU216HW,2013-07-05 04:22:00,
2013-07-04 23:27:00,74.2,63.4,29.88,North,0,0.0,0.0,69,0.00,,,0.01,WUHU216HW,2013-07-05 04:27:00,
2013-07-04 23:32:00,74.0,63.2,29.88,North,0,0.0,0.0,69,0.00,,,0.01,WUHU216HW,2013-07-05 04:32:00,
2013-07-04 23:37:00,73.8,63.1,29.88,North,0,0.0,0.0,69,0.00,,,0.01,WUHU216HW,2013-07-05 04:37:00,
2013-07-04 23:42:00,73.6,63.4,29.88,North,0,0.0,0.0,70,0.00,,,0.01,WUHU216HW,2013-07-05 04:42:00,
2013-07-04 23:47:00,73.1,63.2,29.88,North,0,0.0,0.0,71,0.00,,,0.01,WUHU216HW,2013-07-05 04:47:00,
2013-07-04 23:52:00,72.4,64.0,29.89,NW,315,0.0,0.0,75,0.00,,,0.01,WUHU216HW,2013-07-05 04:52:00,
2013-07-04 23:57:00,71.3,62.9,29.89,WSW,248,0.0,0.4,75,0.00,,,0.01,WUHU216HW,2013-07-05 04:57:00,